This is the latest recevied weather packets stored in our database for station/object DM0MR. If no packets are shown the sender has not sent any weather packets the latest 10 day(s).
| Time | Temp. | Humidity | Pressure | Rain* | Wind** | Luminosity | Snow |
|---|---|---|---|---|---|---|---|
| 1787726289 | 15° C | 94% | 1015.8 hPa | 0 mm | - | - | - |
| 1787725389 | 15° C | 95% | 1015.6 hPa | 0 mm | - | - | - |
| 1787722691 | 14.44° C | 95% | 1015.6 hPa | 0.25 mm | - | - | - |
| 1787721788 | 14.44° C | 95% | 1015.6 hPa | 0.25 mm | - | - | - |
| 1787719089 | 14.44° C | 95% | 1015.4 hPa | 0 mm | - | - | - |
| 1787717288 | 14.44° C | 95% | 1015.3 hPa | 0 mm | - | - | - |
| 1787713689 | 14.44° C | 95% | 1015.6 hPa | 0.25 mm | - | - | - |
| 1787712788 | 14.44° C | 94% | 1015.3 hPa | 0.51 mm | - | - | - |
| 1787711891 | 14.44° C | 93% | 1015.2 hPa | 0.76 mm | - | - | - |
| 1787710989 | 14.44° C | 92% | 1015.2 hPa | 0.76 mm | - | - | - |
| 1787709188 | 14.44° C | 89% | 1015.1 hPa | 0.25 mm | - | - | - |
| 1787708289 | 14.44° C | 88% | 1015.3 hPa | 0 mm | - | - | - |
| 1787707388 | 14.44° C | 87% | 1015.1 hPa | 0.25 mm | - | - | - |
| 1787706488 | 15° C | 85% | 1014.9 hPa | 0.25 mm | - | - | - |
| 1787704689 | 15.56° C | 86% | 1014.8 hPa | 0.25 mm | - | - | - |
| 1787703789 | 15.56° C | 82% | 1014.8 hPa | 0 mm | - | - | - |
| 1787701988 | 15.56° C | 80% | 1015.1 hPa | 0 mm | - | - | - |
| 1787701089 | 16.11° C | 80% | 1015.1 hPa | 0 mm | - | - | - |
| 1787700188 | 16.11° C | 78% | 1015.1 hPa | 0 mm | - | - | - |
| 1787699287 | 15.56° C | 82% | 1015.2 hPa | 0 mm | - | - | - |
| 1787698389 | 15.56° C | 82% | 1015.2 hPa | 0 mm | - | - | - |
| 1787697487 | 16.67° C | 76% | 1015.2 hPa | 0 mm | - | - | - |
| 1787695688 | 17.78° C | 63% | 1015.1 hPa | 0 mm | - | - | - |
| 1787693887 | 18.33° C | 59% | 1014.9 hPa | 0 mm | - | - | - |
| 1787692090 | 19.44° C | 52% | 1014.8 hPa | 0 mm | - | - | - |
* Rain latest hour (hover to see other rain measurements)
** Current wind speed in m/s (hover to see current wind gust speed)